Time;durP1;ratioP1;P1;durP2;ratioP2;P2;SDS_P1;SDS_P2;PMS_P1;PMS_P2;Temp;Humidity;BMP_temperature;BMP_pressure;BME280_temperature;BME280_humidity;BME280_pressure;Samples;Min_cycle;Max_cycle;Signal;HPM_P1;HPM_P2
2022/09/20 00:01:04;;;;;;;27.70;15.82;;;;;;;;;;8395806;28;20098;-87
2022/09/20 00:05:09;;;;;;;27.85;16.33;;;;;;;;;;8407069;28;20472;-87
2022/09/20 00:09:11;;;;;;;27.65;16.27;;;;;;;;;;8398090;28;20389;-86
2022/09/20 00:13:14;;;;;;;25.48;16.05;;;;;;;;;;8395780;28;20036;-88
2022/09/20 00:17:16;;;;;;;26.90;14.98;;;;;;;;;;8395701;28;20063;-87
2022/09/20 00:21:22;;;;;;;28.40;16.17;;;;;;;;;;8395562;28;20072;-89
2022/09/20 00:25:25;;;;;;;23.67;14.77;;;;;;;;;;8395652;28;20040;-87
2022/09/20 00:29:27;;;;;;;23.63;14.73;;;;;;;;;;8395701;28;20159;-88
2022/09/20 00:37:47;;;;;;;21.20;13.73;;;;;;;;;;8394993;28;20049;-88
2022/09/20 00:41:49;;;;;;;23.83;15.38;;;;;;;;;;8395335;28;20468;-86
2022/09/20 00:45:51;;;;;;;26.00;14.32;;;;;;;;;;8409406;28;20128;-89
2022/09/20 00:49:59;;;;;;;22.33;14.18;;;;;;;;;;8395063;28;20049;-86
2022/09/20 00:54:05;;;;;;;20.35;13.00;;;;;;;;;;8400178;28;20041;-87
2022/09/20 00:58:08;;;;;;;22.50;13.80;;;;;;;;;;8401865;28;20101;-87
2022/09/20 01:02:18;;;;;;;20.30;13.32;;;;;;;;;;8401477;28;20040;-87
2022/09/20 01:06:20;;;;;;;20.05;12.38;;;;;;;;;;8415395;28;20049;-87
2022/09/20 01:10:24;;;;;;;19.75;12.00;;;;;;;;;;8401204;28;20506;-87
2022/09/20 01:14:27;;;;;;;17.42;11.55;;;;;;;;;;8400712;28;20119;-87
2022/09/20 01:18:32;;;;;;;21.65;12.32;;;;;;;;;;8400853;28;20569;-85
2022/09/20 01:22:41;;;;;;;17.55;11.18;;;;;;;;;;8400545;28;20446;-87
2022/09/20 01:27:06;;;;;;;18.80;10.88;;;;;;;;;;8400618;28;20466;-87
2022/09/20 01:31:16;;;;;;;17.88;11.30;;;;;;;;;;8400511;28;20458;-87
2022/09/20 01:35:21;;;;;;;17.95;11.48;;;;;;;;;;8400399;28;20407;-88
2022/09/20 01:39:35;;;;;;;15.23;9.90;;;;;;;;;;8400314;28;20049;-87
2022/09/20 01:43:46;;;;;;;19.02;11.95;;;;;;;;;;8400067;28;20484;-87
2022/09/20 01:47:59;;;;;;;18.05;11.45;;;;;;;;;;8399878;28;20049;-87
2022/09/20 01:52:33;;;;;;;16.70;10.43;;;;;;;;;;8400090;28;20401;-89
2022/09/20 01:57:15;;;;;;;14.27;10.20;;;;;;;;;;8399877;28;20055;-88
2022/09/20 02:01:35;;;;;;;;;;;;;;;;;;8399984;28;20047;-88
2022/09/20 02:05:58;;;;;;;16.20;10.55;;;;;;;;;;8412868;28;20082;-87
2022/09/20 02:10:38;;;;;;;18.58;10.57;;;;;;;;;;8399329;28;20048;-87
2022/09/20 02:14:50;;;;;;;18.83;11.55;;;;;;;;;;8398981;28;20048;-87
2022/09/20 02:19:43;;;;;;;16.77;11.15;;;;;;;;;;8372962;28;20468;-88
2022/09/20 02:23:51;;;;;;;;;;;;;;;;;;8322163;28;20068;-87
2022/09/20 02:28:16;;;;;;;21.10;11.93;;;;;;;;;;8365618;28;19931;-88
2022/09/20 02:32:35;;;;;;;21.25;11.95;;;;;;;;;;8365463;28;20443;-87
2022/09/20 02:36:47;;;;;;;18.33;10.75;;;;;;;;;;8365258;28;20041;-87
2022/09/20 02:41:21;;;;;;;16.98;10.88;;;;;;;;;;8365395;28;20056;-87
2022/09/20 02:45:30;;;;;;;19.30;10.50;;;;;;;;;;8364766;28;20068;-87
2022/09/20 02:49:45;;;;;;;16.63;10.32;;;;;;;;;;8367104;28;20044;-88
2022/09/20 02:53:58;;;;;;;15.93;10.07;;;;;;;;;;8377877;28;20480;-86
2022/09/20 02:58:15;;;;;;;18.48;10.95;;;;;;;;;;8398346;28;20044;-87
2022/09/20 03:02:24;;;;;;;18.65;11.65;;;;;;;;;;8419755;28;20047;-86
2022/09/20 03:06:33;;;;;;;19.23;11.07;;;;;;;;;;8419215;28;20040;-87
2022/09/20 03:10:40;;;;;;;18.70;13.50;;;;;;;;;;8426462;28;20043;-87
2022/09/20 03:14:53;;;;;;;18.98;11.18;;;;;;;;;;8420468;28;20041;-87
2022/09/20 03:19:15;;;;;;;18.02;11.82;;;;;;;;;;8395800;28;20403;-88
2022/09/20 03:23:34;;;;;;;19.33;11.98;;;;;;;;;;8408392;28;20488;-89
2022/09/20 03:27:44;;;;;;;18.42;12.55;;;;;;;;;;8393181;28;20476;-88
2022/09/20 03:32:00;;;;;;;18.30;13.32;;;;;;;;;;8391935;28;20040;-87
2022/09/20 03:36:17;;;;;;;18.95;10.73;;;;;;;;;;8388985;28;20040;-87
2022/09/20 03:40:51;;;;;;;18.45;12.30;;;;;;;;;;8393937;28;20094;-87
2022/09/20 03:45:22;;;;;;;21.33;12.05;;;;;;;;;;8372455;28;20658;-87
2022/09/20 03:50:00;;;;;;;18.98;12.00;;;;;;;;;;8394568;28;20766;-87
2022/09/20 03:54:47;;;;;;;16.25;11.15;;;;;;;;;;8399361;28;20056;-87
2022/09/20 03:59:04;;;;;;;21.50;12.20;;;;;;;;;;8392814;28;20085;-87
2022/09/20 04:03:23;;;;;;;18.60;11.40;;;;;;;;;;8400292;28;20043;-88
2022/09/20 04:07:38;;;;;;;21.50;13.43;;;;;;;;;;8403490;28;20044;-88
2022/09/20 04:11:48;;;;;;;21.42;13.05;;;;;;;;;;8406150;28;20069;-87
2022/09/20 04:16:03;;;;;;;22.10;14.13;;;;;;;;;;8400804;28;20036;-87
2022/09/20 04:20:19;;;;;;;21.85;13.60;;;;;;;;;;8439171;28;20063;-88
2022/09/20 04:24:28;;;;;;;23.60;13.77;;;;;;;;;;8455097;28;20035;-87
2022/09/20 04:28:40;;;;;;;22.48;12.85;;;;;;;;;;8448259;28;20077;-86
2022/09/20 04:32:50;;;;;;;24.15;13.88;;;;;;;;;;8452752;28;20164;-86
2022/09/20 04:37:03;;;;;;;26.90;14.40;;;;;;;;;;8452773;28;20475;-89
2022/09/20 04:41:29;;;;;;;22.70;13.82;;;;;;;;;;8459897;28;20055;-86
2022/09/20 04:46:01;;;;;;;23.30;13.30;;;;;;;;;;8448212;28;20047;-86
2022/09/20 04:50:41;;;;;;;24.48;12.52;;;;;;;;;;8440641;28;20289;-88
2022/09/20 04:55:25;;;;;;;20.25;11.85;;;;;;;;;;8380000;28;20442;-86
2022/09/20 04:59:45;;;;;;;22.50;12.50;;;;;;;;;;8333375;28;20056;-87
2022/09/20 05:04:21;;;;;;;20.10;11.55;;;;;;;;;;8395443;28;20049;-88
2022/09/20 05:08:53;;;;;;;23.85;13.80;;;;;;;;;;8416187;28;20048;-88
2022/09/20 05:13:14;;;;;;;22.92;12.65;;;;;;;;;;8403793;28;20052;-88
2022/09/20 05:17:45;;;;;;;24.33;12.63;;;;;;;;;;8394296;28;20052;-87
2022/09/20 05:22:08;;;;;;;24.83;12.30;;;;;;;;;;8394626;28;20484;-88
2022/09/20 05:26:15;;;;;;;19.35;11.60;;;;;;;;;;8417751;28;20050;-88
2022/09/20 05:30:27;;;;;;;21.85;12.10;;;;;;;;;;8411913;28;20046;-87
2022/09/20 05:34:35;;;;;;;20.63;11.80;;;;;;;;;;8419125;28;20592;-87
2022/09/20 05:38:47;;;;;;;18.75;11.95;;;;;;;;;;8419028;28;20090;-88
2022/09/20 05:42:55;;;;;;;18.60;10.95;;;;;;;;;;8411455;28;20122;-88
2022/09/20 05:47:06;;;;;;;21.77;11.93;;;;;;;;;;8420734;28;20114;-87
2022/09/20 05:51:19;;;;;;;20.53;11.67;;;;;;;;;;8406970;28;20040;-88
2022/09/20 05:55:52;;;;;;;21.35;11.15;;;;;;;;;;8400034;28;20815;-89
2022/09/20 06:00:03;;;;;;;21.33;11.15;;;;;;;;;;8410727;28;20102;-89
2022/09/20 06:04:16;;;;;;;20.02;10.98;;;;;;;;;;8402352;28;20453;-89
2022/09/20 06:08:44;;;;;;;23.58;12.48;;;;;;;;;;8390896;28;20059;-89
2022/09/20 06:12:56;;;;;;;20.83;11.27;;;;;;;;;;8415240;28;20511;-86
2022/09/20 06:17:02;;;;;;;;;;;;;;;;;;8405322;28;20052;-88
2022/09/20 06:21:15;;;;;;;16.40;10.73;;;;;;;;;;8412118;28;19924;-86
2022/09/20 06:25:23;;;;;;;19.27;10.48;;;;;;;;;;8399845;28;20040;-87
2022/09/20 06:29:33;;;;;;;14.77;9.82;;;;;;;;;;8422950;28;21512;-87
2022/09/20 06:33:43;;;;;;;16.10;9.68;;;;;;;;;;8405903;28;20050;-88
2022/09/20 06:42:13;;;;;;;15.13;9.52;;;;;;;;;;8398752;28;20048;-87
2022/09/20 06:46:18;;;;;;;13.88;8.93;;;;;;;;;;8398249;28;20040;-87
2022/09/20 06:50:21;;;;;;;16.35;8.77;;;;;;;;;;8398170;28;20048;-86
2022/09/20 06:54:25;;;;;;;12.85;7.32;;;;;;;;;;8398154;28;20049;-88
2022/09/20 06:58:28;;;;;;;12.70;8.02;;;;;;;;;;8398183;28;20415;-89
2022/09/20 07:02:32;;;;;;;13.32;9.52;;;;;;;;;;8398005;28;20041;-87
2022/09/20 07:06:34;;;;;;;13.55;8.85;;;;;;;;;;8412191;28;20044;-88
2022/09/20 07:10:38;;;;;;;12.48;8.02;;;;;;;;;;8397682;28;20476;-89
2022/09/20 07:14:41;;;;;;;11.02;7.80;;;;;;;;;;8410762;28;20055;-88
2022/09/20 07:18:45;;;;;;;12.05;7.32;;;;;;;;;;8397250;28;20079;-90
2022/09/20 07:22:49;;;;;;;12.20;8.27;;;;;;;;;;8397408;28;20525;-87
2022/09/20 07:26:55;;;;;;;12.05;8.45;;;;;;;;;;8397367;28;20496;-89
2022/09/20 07:30:58;;;;;;;12.55;8.15;;;;;;;;;;8397154;28;20045;-88
2022/09/20 07:35:03;;;;;;;10.75;7.40;;;;;;;;;;8397045;28;20041;-88
2022/09/20 07:39:05;;;;;;;10.98;6.63;;;;;;;;;;8396816;28;20136;-88
2022/09/20 07:43:08;;;;;;;9.73;6.60;;;;;;;;;;8396589;28;20105;-87
2022/09/20 07:47:13;;;;;;;9.25;6.60;;;;;;;;;;8396403;28;20040;-89
2022/09/20 07:51:16;;;;;;;9.88;5.30;;;;;;;;;;8396457;28;20469;-87
2022/09/20 07:55:19;;;;;;;8.02;6.18;;;;;;;;;;8395085;28;20036;-88
2022/09/20 07:59:23;;;;;;;10.38;6.18;;;;;;;;;;8414526;28;20108;-88
2022/09/20 08:03:26;;;;;;;12.65;6.43;;;;;;;;;;8419942;28;20188;-87
2022/09/20 08:07:32;;;;;;;9.52;6.28;;;;;;;;;;8413080;28;20471;-88
2022/09/20 08:11:36;;;;;;;17.58;7.72;;;;;;;;;;8428387;28;20089;-87
2022/09/20 08:15:39;;;;;;;10.20;5.88;;;;;;;;;;8422559;28;20058;-88
2022/09/20 08:19:43;;;;;;;10.05;6.60;;;;;;;;;;8429484;28;20131;-89
2022/09/20 08:23:48;;;;;;;8.95;6.43;;;;;;;;;;8421310;28;20044;-87
2022/09/20 08:27:53;;;;;;;8.73;6.35;;;;;;;;;;8436125;28;20048;-87
2022/09/20 08:31:57;;;;;;;8.60;5.57;;;;;;;;;;8436868;28;20051;-87
2022/09/20 08:35:59;;;;;;;7.55;5.40;;;;;;;;;;8422324;28;20040;-88
2022/09/20 08:40:04;;;;;;;11.20;5.30;;;;;;;;;;8407289;28;20117;-88
2022/09/20 08:44:15;;;;;;;8.70;5.22;;;;;;;;;;8413437;28;20047;-89
2022/09/20 08:48:20;;;;;;;10.27;5.32;;;;;;;;;;8413010;28;20072;-88
2022/09/20 08:52:30;;;;;;;8.32;5.07;;;;;;;;;;8428743;28;20501;-86
2022/09/20 08:56:36;;;;;;;6.93;4.78;;;;;;;;;;8416588;28;20592;-88
2022/09/20 09:00:40;;;;;;;7.93;5.00;;;;;;;;;;8440874;28;20035;-88
2022/09/20 09:04:44;;;;;;;8.98;5.55;;;;;;;;;;8453725;28;20038;-88
2022/09/20 09:08:52;;;;;;;9.77;5.00;;;;;;;;;;8456059;28;20055;-87
2022/09/20 09:12:57;;;;;;;10.05;5.90;;;;;;;;;;8430970;28;20406;-88
2022/09/20 09:17:00;;;;;;;12.23;6.60;;;;;;;;;;8421382;28;20135;-88
2022/09/20 09:21:04;;;;;;;9.68;6.38;;;;;;;;;;8432800;28;20044;-88
2022/09/20 09:25:09;;;;;;;10.38;6.38;;;;;;;;;;8424534;28;20477;-87
2022/09/20 09:29:18;;;;;;;10.93;6.13;;;;;;;;;;8428728;28;20044;-85
2022/09/20 09:33:25;;;;;;;9.05;5.65;;;;;;;;;;8433516;28;20048;-88
2022/09/20 09:37:29;;;;;;;8.70;4.80;;;;;;;;;;8422559;28;20052;-89
2022/09/20 09:41:34;;;;;;;11.07;5.28;;;;;;;;;;8421720;28;20479;-88
2022/09/20 09:45:40;;;;;;;9.80;5.20;;;;;;;;;;8417728;28;20044;-88
2022/09/20 09:49:58;;;;;;;10.80;5.50;;;;;;;;;;8421062;28;20135;-88
2022/09/20 09:54:02;;;;;;;8.35;5.40;;;;;;;;;;8417542;28;20048;-88
2022/09/20 09:58:11;;;;;;;8.73;5.65;;;;;;;;;;8413662;28;20048;-89
2022/09/20 10:02:32;;;;;;;13.18;6.55;;;;;;;;;;8438960;28;20473;-87
2022/09/20 10:06:41;;;;;;;9.10;5.28;;;;;;;;;;8409843;28;20462;-88
2022/09/20 10:11:01;;;;;;;12.85;6.28;;;;;;;;;;8424908;28;20056;-88
2022/09/20 10:15:25;;;;;;;10.40;5.40;;;;;;;;;;8429629;28;20126;-88
2022/09/20 10:19:53;;;;;;;12.85;5.68;;;;;;;;;;8432764;28;20062;-87
2022/09/20 10:24:09;;;;;;;12.07;6.32;;;;;;;;;;8405176;28;20109;-88
2022/09/20 10:28:28;;;;;;;9.95;5.57;;;;;;;;;;8445825;28;20092;-87
2022/09/20 10:32:52;;;;;;;10.98;6.45;;;;;;;;;;8410199;28;20054;-88
2022/09/20 10:36:58;;;;;;;12.27;6.63;;;;;;;;;;8419068;28;20094;-87
2022/09/20 10:45:37;;;;;;;;;;;;;;;;;;8408049;28;20384;-88
2022/09/20 10:49:44;;;;;;;9.90;5.85;;;;;;;;;;8437607;28;19931;-89
2022/09/20 10:53:58;;;;;;;7.85;5.32;;;;;;;;;;8427351;28;20053;-88
2022/09/20 10:58:30;;;;;;;8.27;5.68;;;;;;;;;;8430121;28;20443;-88
2022/09/20 11:02:49;;;;;;;9.45;5.93;;;;;;;;;;8412041;28;20049;-87
2022/09/20 11:07:02;;;;;;;12.82;5.68;;;;;;;;;;8413691;28;20048;-89
2022/09/20 11:11:11;;;;;;;12.70;5.93;;;;;;;;;;8443343;28;20036;-88
2022/09/20 11:15:22;;;;;;;7.57;4.85;;;;;;;;;;8417273;28;20052;-88
2022/09/20 11:19:47;;;;;;;9.43;5.95;;;;;;;;;;8424461;28;20063;-89
2022/09/20 11:24:00;;;;;;;9.95;5.25;;;;;;;;;;8424428;28;20075;-89
2022/09/20 11:28:14;;;;;;;9.98;5.93;;;;;;;;;;8424969;28;20483;-88
2022/09/20 11:32:24;;;;;;;11.82;8.73;;;;;;;;;;8425524;28;20054;-88
2022/09/20 11:36:33;;;;;;;6.82;4.47;;;;;;;;;;8428651;28;20040;-88
2022/09/20 11:40:40;;;;;;;6.57;4.10;;;;;;;;;;8454431;28;20104;-89
2022/09/20 11:44:44;;;;;;;7.57;4.82;;;;;;;;;;8447617;28;20052;-89
2022/09/20 11:48:52;;;;;;;7.60;4.57;;;;;;;;;;8431761;28;20043;-89
2022/09/20 11:53:11;;;;;;;5.95;4.53;;;;;;;;;;8425469;28;20048;-88
2022/09/20 11:57:15;;;;;;;8.05;4.38;;;;;;;;;;8424606;28;20044;-87
2022/09/20 12:01:26;;;;;;;6.80;4.00;;;;;;;;;;8434324;28;20078;-88
2022/09/20 12:05:33;;;;;;;6.22;3.80;;;;;;;;;;8430991;28;20051;-88
2022/09/20 12:09:38;;;;;;;9.35;5.28;;;;;;;;;;8424709;28;20143;-87
2022/09/20 12:13:42;;;;;;;7.07;4.43;;;;;;;;;;8441633;28;20483;-89
2022/09/20 12:18:36;;;;;;;6.22;4.30;;;;;;;;;;8439975;28;20075;-87
2022/09/20 12:22:41;;;;;;;7.15;3.72;;;;;;;;;;8424186;28;20076;-87
2022/09/20 12:26:45;;;;;;;6.55;3.53;;;;;;;;;;8424368;28;20044;-86
2022/09/20 12:31:28;;;;;;;6.60;3.55;;;;;;;;;;8424534;28;20048;-87
2022/09/20 12:35:48;;;;;;;;;;;;;;;;;;8419013;28;20055;-87
2022/09/20 12:39:55;;;;;;;3.58;1.80;;;;;;;;;;8420677;28;20382;-87
2022/09/20 12:44:01;;;;;;;3.08;1.90;;;;;;;;;;8427411;28;20044;-86
2022/09/20 12:48:04;;;;;;;2.13;1.70;;;;;;;;;;8411232;28;20419;-87
2022/09/20 12:57:26;;;;;;;2.72;1.85;;;;;;;;;;8447039;28;20071;-88
2022/09/20 13:01:32;;;;;;;4.68;2.80;;;;;;;;;;8449625;28;20131;-86
2022/09/20 13:05:39;;;;;;;5.05;2.95;;;;;;;;;;8428013;28;20416;-86
2022/09/20 13:09:41;;;;;;;13.18;9.43;;;;;;;;;;8426756;28;20075;-87
2022/09/20 13:13:52;;;;;;;12.55;8.63;;;;;;;;;;8426295;28;20048;-89
2022/09/20 13:18:00;;;;;;;11.07;7.30;;;;;;;;;;8442095;28;20060;-87
2022/09/20 13:22:10;;;;;;;46.88;22.88;;;;;;;;;;8444300;28;20048;-86
2022/09/20 13:26:16;;;;;;;32.53;17.67;;;;;;;;;;8426585;28;20056;-88
2022/09/20 13:30:24;;;;;;;15.75;8.25;;;;;;;;;;8428006;28;20047;-88
2022/09/20 13:34:27;;;;;;;22.60;11.77;;;;;;;;;;8428254;28;20054;-87
2022/09/20 13:38:37;;;;;;;10.68;7.03;;;;;;;;;;8442644;28;20074;-86
2022/09/20 13:42:58;;;;;;;18.65;10.15;;;;;;;;;;8395942;28;20114;-87
2022/09/20 13:47:26;;;;;;;14.48;7.47;;;;;;;;;;8441192;28;20052;-88
2022/09/20 13:51:36;;;;;;;11.00;7.13;;;;;;;;;;8443771;28;20479;-87
2022/09/20 13:55:43;;;;;;;7.80;4.47;;;;;;;;;;8425129;28;20064;-88
2022/09/20 13:59:47;;;;;;;9.98;5.93;;;;;;;;;;8427889;28;20133;-87
2022/09/20 14:04:01;;;;;;;7.40;4.28;;;;;;;;;;8416174;28;20485;-88
2022/09/20 14:08:52;;;;;;;7.07;4.75;;;;;;;;;;8423700;28;20055;-87
2022/09/20 14:12:56;;;;;;;13.13;7.18;;;;;;;;;;8411671;28;20049;-86
2022/09/20 14:17:01;;;;;;;11.45;7.28;;;;;;;;;;8415541;28;20147;-86
2022/09/20 14:21:14;;;;;;;11.95;7.97;;;;;;;;;;8406156;28;20044;-84
2022/09/20 14:25:24;;;;;;;13.88;8.73;;;;;;;;;;8425643;28;20060;-86
2022/09/20 14:29:30;;;;;;;29.42;16.63;;;;;;;;;;8425960;28;20123;-86
2022/09/20 14:33:33;;;;;;;24.73;14.73;;;;;;;;;;8425969;28;20048;-87
2022/09/20 14:37:43;;;;;;;21.02;13.07;;;;;;;;;;8431563;28;20507;-86
2022/09/20 14:41:46;;;;;;;19.15;12.13;;;;;;;;;;8419938;28;20064;-87
2022/09/20 14:45:54;;;;;;;32.53;15.27;;;;;;;;;;8413689;28;20533;-87
2022/09/20 14:49:58;;;;;;;40.30;18.50;;;;;;;;;;8417981;28;20080;-87
2022/09/20 14:58:31;;;;;;;37.30;21.27;;;;;;;;;;8490468;27;1839518;-86
2022/09/20 15:02:36;;;;;;;53.50;27.25;;;;;;;;;;8524344;27;20442;-86
2022/09/20 15:06:39;;;;;;;88.30;34.92;;;;;;;;;;8534717;27;20098;-87
2022/09/20 15:10:42;;;;;;;33.97;20.15;;;;;;;;;;8519413;27;20075;-87
2022/09/20 15:14:46;;;;;;;35.80;20.10;;;;;;;;;;8540729;27;20057;-87
2022/09/20 15:18:49;;;;;;;57.13;26.23;;;;;;;;;;8542652;27;20050;-87
2022/09/20 15:22:52;;;;;;;34.97;19.65;;;;;;;;;;8525775;27;20050;-87
2022/09/20 15:26:55;;;;;;;28.45;17.77;;;;;;;;;;8534210;27;20051;-87
2022/09/20 15:31:02;;;;;;;31.23;19.17;;;;;;;;;;8538197;27;20038;-86
2022/09/20 15:35:07;;;;;;;32.63;16.83;;;;;;;;;;8541355;27;20074;-87
2022/09/20 15:39:10;;;;;;;37.33;19.27;;;;;;;;;;8526672;27;20051;-87
2022/09/20 15:43:15;;;;;;;32.35;15.73;;;;;;;;;;8526099;27;20046;-87
2022/09/20 15:47:20;;;;;;;33.08;16.77;;;;;;;;;;8531273;27;20450;-87
2022/09/20 15:51:23;;;;;;;26.40;15.95;;;;;;;;;;8549551;27;20043;-87
2022/09/20 15:55:26;;;;;;;29.58;15.77;;;;;;;;;;8539102;27;20062;-86
2022/09/20 15:59:28;;;;;;;40.50;23.70;;;;;;;;;;8535017;27;20046;-86
2022/09/20 16:03:33;;;;;;;38.80;19.15;;;;;;;;;;8521284;27;20471;-87
2022/09/20 16:07:35;;;;;;;46.55;21.45;;;;;;;;;;8516524;27;20077;-86
2022/09/20 16:11:40;;;;;;;44.70;21.30;;;;;;;;;;8522849;27;20046;-86
2022/09/20 16:15:54;;;;;;;42.20;21.08;;;;;;;;;;8516025;27;20074;-86
2022/09/20 16:20:00;;;;;;;;;;;;;;;;;;8509321;27;20047;-87
2022/09/20 16:24:07;;;;;;;41.80;20.58;;;;;;;;;;8507901;27;19927;-86
2022/09/20 16:28:12;;;;;;;46.53;23.95;;;;;;;;;;8510739;27;20069;-86
2022/09/20 16:32:15;;;;;;;45.08;21.63;;;;;;;;;;8477542;27;20447;-87
2022/09/20 16:36:19;;;;;;;35.15;17.75;;;;;;;;;;8487110;27;20681;-86
2022/09/20 16:40:23;;;;;;;40.05;20.20;;;;;;;;;;8502948;27;20054;-87
2022/09/20 16:44:25;;;;;;;43.03;24.48;;;;;;;;;;8485654;27;20532;-86
2022/09/20 16:48:31;;;;;;;39.35;21.80;;;;;;;;;;8487046;27;20402;-86
2022/09/20 16:52:36;;;;;;;56.25;28.13;;;;;;;;;;8490169;27;20047;-86
2022/09/20 16:56:40;;;;;;;62.90;32.83;;;;;;;;;;8497329;27;20062;-87
2022/09/20 17:00:42;;;;;;;52.47;27.85;;;;;;;;;;8482681;27;20543;-87
2022/09/20 17:04:45;;;;;;;59.10;32.63;;;;;;;;;;8486549;27;20043;-87
2022/09/20 17:08:52;;;;;;;41.00;22.42;;;;;;;;;;8472973;27;20100;-87
2022/09/20 17:12:58;;;;;;;42.65;21.95;;;;;;;;;;8465804;27;20047;-86
2022/09/20 17:17:02;;;;;;;42.63;21.63;;;;;;;;;;8488297;27;20075;-87
2022/09/20 17:21:05;;;;;;;35.95;19.42;;;;;;;;;;8459510;27;20418;-86
2022/09/20 17:25:10;;;;;;;36.53;16.08;;;;;;;;;;8480991;27;20427;-87
2022/09/20 17:29:15;;;;;;;35.63;16.83;;;;;;;;;;8477467;27;20567;-86
2022/09/20 17:33:17;;;;;;;40.30;16.50;;;;;;;;;;8471289;27;20058;-88
2022/09/20 17:37:21;;;;;;;36.72;17.27;;;;;;;;;;8490164;27;20039;-87
2022/09/20 17:41:26;;;;;;;54.83;25.42;;;;;;;;;;8493018;27;20091;-87
2022/09/20 17:45:29;;;;;;;60.88;27.45;;;;;;;;;;8482533;27;20039;-86
2022/09/20 17:49:33;;;;;;;58.40;27.00;;;;;;;;;;8480263;27;20058;-87
2022/09/20 17:53:37;;;;;;;63.70;29.67;;;;;;;;;;8485949;27;20107;-86
2022/09/20 17:57:41;;;;;;;115.35;53.78;;;;;;;;;;8467468;27;20083;-87
2022/09/20 18:01:46;;;;;;;51.75;24.75;;;;;;;;;;8490993;27;20141;-87
2022/09/20 18:05:49;;;;;;;52.90;27.65;;;;;;;;;;8488189;27;20050;-86
2022/09/20 18:09:52;;;;;;;60.00;29.92;;;;;;;;;;8483652;27;20054;-86
2022/09/20 18:13:55;;;;;;;47.42;25.77;;;;;;;;;;8492488;27;20125;-87
2022/09/20 18:18:07;;;;;;;55.03;24.83;;;;;;;;;;8515238;27;20506;-86
2022/09/20 18:22:11;;;;;;;50.03;27.55;;;;;;;;;;8479644;27;20402;-87
2022/09/20 18:26:22;;;;;;;104.07;47.50;;;;;;;;;;8479300;27;20051;-87
2022/09/20 18:30:26;;;;;;;112.35;55.83;;;;;;;;;;8473867;27;20035;-86
2022/09/20 18:34:32;;;;;;;127.85;70.07;;;;;;;;;;8470814;27;20489;-85
2022/09/20 18:38:35;;;;;;;87.47;46.80;;;;;;;;;;8475089;27;20075;-87
2022/09/20 18:42:39;;;;;;;90.75;45.08;;;;;;;;;;8468448;28;20044;-86
2022/09/20 18:46:44;;;;;;;68.63;35.10;;;;;;;;;;8465155;27;20561;-86
2022/09/20 18:50:57;;;;;;;87.82;42.78;;;;;;;;;;8452976;27;20047;-85
2022/09/20 18:55:05;;;;;;;78.68;39.47;;;;;;;;;;8481708;27;20039;-86
2022/09/20 18:59:14;;;;;;;104.13;40.38;;;;;;;;;;8480472;28;20043;-86
2022/09/20 19:03:25;;;;;;;100.30;43.60;;;;;;;;;;8473013;28;20043;-85
2022/09/20 19:07:38;;;;;;;72.40;36.70;;;;;;;;;;8478418;28;20395;-84
2022/09/20 19:11:47;;;;;;;74.93;38.28;;;;;;;;;;8497554;28;20292;-87
2022/09/20 19:16:10;;;;;;;64.97;34.63;;;;;;;;;;8478401;28;20057;-86
2022/09/20 19:20:22;;;;;;;115.18;51.80;;;;;;;;;;8494218;28;20050;-85
2022/09/20 19:24:39;;;;;;;;;;;;;;;;;;8474766;27;20053;-85
2022/09/20 19:28:43;;;;;;;49.47;24.83;;;;;;;;;;8469076;27;20320;-87
2022/09/20 19:32:52;;;;;;;35.00;15.73;;;;;;;;;;8465092;28;20047;-86
2022/09/20 19:37:07;;;;;;;70.75;31.30;;;;;;;;;;8455724;28;20057;-85
2022/09/20 19:41:26;;;;;;;50.50;22.05;;;;;;;;;;8496532;27;20046;-87
2022/09/20 19:45:37;;;;;;;61.30;29.15;;;;;;;;;;8484539;27;20039;-86
2022/09/20 19:49:48;;;;;;;49.27;25.37;;;;;;;;;;8503238;27;20410;-86
2022/09/20 19:53:54;;;;;;;53.07;25.97;;;;;;;;;;8502267;27;20391;-86
2022/09/20 19:57:58;;;;;;;72.60;33.75;;;;;;;;;;8501979;27;20059;-86
2022/09/20 20:02:01;;;;;;;60.95;30.08;;;;;;;;;;8502420;27;20383;-85
2022/09/20 20:06:15;;;;;;;56.28;28.35;;;;;;;;;;8483610;27;20142;-85
2022/09/20 20:10:27;;;;;;;41.28;21.27;;;;;;;;;;8502804;27;20043;-87
2022/09/20 20:14:38;;;;;;;26.55;14.10;;;;;;;;;;8501847;27;20117;-86
2022/09/20 20:18:51;;;;;;;42.13;23.60;;;;;;;;;;8501584;27;20486;-85
2022/09/20 20:23:18;;;;;;;49.67;26.25;;;;;;;;;;8501170;27;20054;-87
2022/09/20 20:27:24;;;;;;;37.25;19.80;;;;;;;;;;8501450;27;20051;-84
2022/09/20 20:31:28;;;;;;;52.58;24.77;;;;;;;;;;8500774;27;20035;-87
2022/09/20 20:35:31;;;;;;;60.03;31.38;;;;;;;;;;8500859;27;20039;-86
2022/09/20 20:39:37;;;;;;;37.00;19.08;;;;;;;;;;8500817;27;20531;-84
2022/09/20 20:43:42;;;;;;;38.03;19.27;;;;;;;;;;8500706;27;20262;-85
2022/09/20 20:47:46;;;;;;;47.90;23.23;;;;;;;;;;8500613;27;20039;-85
2022/09/20 20:51:48;;;;;;;41.97;21.10;;;;;;;;;;8500414;27;20122;-85
2022/09/20 20:55:59;;;;;;;44.60;20.98;;;;;;;;;;8500150;27;20051;-85
2022/09/20 21:00:04;;;;;;;40.78;19.63;;;;;;;;;;8489684;27;20078;-86
2022/09/20 21:04:07;;;;;;;39.58;20.10;;;;;;;;;;8504298;27;20481;-85
2022/09/20 21:08:10;;;;;;;37.55;19.05;;;;;;;;;;8513514;27;20071;-87
2022/09/20 21:12:13;;;;;;;35.15;17.80;;;;;;;;;;8500852;27;20066;-86
2022/09/20 21:16:18;;;;;;;30.83;15.68;;;;;;;;;;8499424;27;20040;-86
2022/09/20 21:20:21;;;;;;;33.33;15.88;;;;;;;;;;8499657;27;20421;-85
2022/09/20 21:24:24;;;;;;;39.20;17.95;;;;;;;;;;8499274;27;20068;-86
2022/09/20 21:28:29;;;;;;;37.92;18.15;;;;;;;;;;8499223;27;20061;-85
2022/09/20 21:32:33;;;;;;;41.17;18.33;;;;;;;;;;8499160;27;20098;-86
2022/09/20 21:36:37;;;;;;;32.05;17.05;;;;;;;;;;8498767;27;20031;-86
2022/09/20 21:40:40;;;;;;;40.83;17.42;;;;;;;;;;8498878;27;20047;-86
2022/09/20 21:44:43;;;;;;;61.38;27.25;;;;;;;;;;8498594;27;20059;-85
2022/09/20 21:48:48;;;;;;;164.20;61.25;;;;;;;;;;8498647;27;20035;-85
2022/09/20 21:52:51;;;;;;;231.45;88.63;;;;;;;;;;8498415;27;20402;-86
2022/09/20 21:56:58;;;;;;;171.48;71.22;;;;;;;;;;8498178;27;20055;-85
2022/09/20 23:12:11;;;;;;;27.27;14.35;;;;;;;;;;10224580;22;1950863;-86
2022/09/20 23:16:14;;;;;;;24.08;15.25;;;;;;;;;;10301072;23;20440;-85
2022/09/20 23:20:17;;;;;;;24.50;13.18;;;;;;;;;;10301261;22;20021;-85
